Time;durP1;ratioP1;P1;durP2;ratioP2;P2;SDS_P1;SDS_P2;PMS_P1;PMS_P2;Temp;Humidity;BMP_temperature;BMP_pressure;BME280_temperature;BME280_humidity;BME280_pressure;Samples;Min_cycle;Max_cycle;Signal;HPM_P1;HPM_P2
2022/09/05 00:01:50;;;;;;;4.72;2.83;;;18.10;99.90;;;;;;5033574;28;20076;-79
2022/09/05 00:04:21;;;;;;;4.28;2.80;;;18.00;99.90;;;;;;5032500;28;20041;-78
2022/09/05 00:07:08;;;;;;;4.90;3.00;;;18.00;99.90;;;;;;5015815;28;20573;-79
2022/09/05 00:10:15;;;;;;;3.97;3.35;;;18.00;99.90;;;;;;5033469;28;20124;-79
2022/09/05 00:12:42;;;;;;;7.10;3.60;;;18.00;99.90;;;;;;5031817;28;20100;-78
2022/09/05 00:15:29;;;;;;;5.45;3.65;;;18.00;99.90;;;;;;5032328;28;20053;-78
2022/09/05 00:18:20;;;;;;;6.18;3.83;;;17.90;99.90;;;;;;5033146;28;20063;-79
2022/09/05 00:21:14;;;;;;;5.85;3.13;;;17.80;99.90;;;;;;5015396;28;20415;-78
2022/09/05 00:23:53;;;;;;;5.57;3.20;;;17.80;99.90;;;;;;5032251;28;20095;-78
2022/09/05 00:26:33;;;;;;;4.05;3.20;;;17.80;99.90;;;;;;5032499;28;20049;-78
2022/09/05 00:29:40;;;;;;;3.80;3.42;;;17.70;99.90;;;;;;5032305;28;20116;-79
2022/09/05 00:32:19;;;;;;;3.78;3.22;;;17.70;99.90;;;;;;5033382;28;20057;-78
2022/09/05 00:35:01;;;;;;;6.70;4.13;;;17.70;99.90;;;;;;5032014;28;20046;-79
2022/09/05 00:37:30;;;;;;;7.38;3.75;;;17.60;99.90;;;;;;5038345;28;20084;-78
2022/09/05 00:40:19;;;;;;;3.60;3.30;;;17.60;99.90;;;;;;5038151;28;20417;-78
2022/09/05 00:42:49;;;;;;;4.47;3.60;;;17.60;99.90;;;;;;5033032;28;20492;-79
2022/09/05 00:45:42;;;;;;;5.07;3.33;;;17.50;99.90;;;;;;5031440;28;20041;-78
2022/09/05 00:48:56;;;;;;;4.90;3.50;;;17.60;99.90;;;;;;5025071;28;20115;-78
2022/09/05 00:51:45;;;;;;;5.10;3.70;;;17.50;99.90;;;;;;5014883;28;20512;-78
2022/09/05 00:54:14;;;;;;;4.43;3.90;;;17.50;99.90;;;;;;5032800;28;20160;-78
2022/09/05 00:57:10;;;;;;;6.40;3.80;;;17.40;99.90;;;;;;5032276;28;20041;-79
2022/09/05 01:00:08;;;;;;;8.25;4.03;;;17.40;99.90;;;;;;5032413;28;20042;-79
2022/09/05 01:02:59;;;;;;;6.47;3.80;;;17.40;99.90;;;;;;5032713;28;20137;-78
2022/09/05 01:05:40;;;;;;;5.30;3.63;;;17.30;99.90;;;;;;5014769;28;20056;-79
2022/09/05 01:08:48;;;;;;;4.82;3.88;;;17.30;99.90;;;;;;5014959;28;20059;-79
2022/09/05 01:11:35;;;;;;;4.40;3.70;;;17.30;99.90;;;;;;5004232;28;20089;-78
2022/09/05 01:14:12;;;;;;;6.75;3.80;;;17.30;99.90;;;;;;5032089;28;20835;-79
2022/09/05 01:17:00;;;;;;;7.18;3.92;;;17.20;99.90;;;;;;5032279;28;20420;-78
2022/09/05 01:19:46;;;;;;;7.50;4.35;;;17.20;99.90;;;;;;5031195;28;20160;-79
2022/09/05 01:22:26;;;;;;;5.28;3.70;;;17.20;99.90;;;;;;5030861;28;20447;-78
2022/09/05 01:25:27;;;;;;;6.30;3.83;;;17.10;99.90;;;;;;5031933;28;20041;-79
2022/09/05 01:28:11;;;;;;;5.75;4.20;;;17.10;99.90;;;;;;5028959;28;20053;-79
2022/09/05 01:30:51;;;;;;;5.05;3.97;;;17.10;99.90;;;;;;5031846;28;20033;-78
2022/09/05 01:33:58;;;;;;;6.03;4.10;;;17.10;99.90;;;;;;5031821;28;20353;-78
2022/09/05 01:36:49;;;;;;;5.40;4.18;;;17.00;99.90;;;;;;4970777;28;20043;-78
2022/09/05 01:39:49;;;;;;;10.20;4.13;;;17.00;99.90;;;;;;5030762;28;20404;-79
2022/09/05 01:42:37;;;;;;;5.38;4.60;;;17.00;99.90;;;;;;5030633;28;20045;-78
2022/09/05 01:45:11;;;;;;;4.90;3.95;;;17.00;99.90;;;;;;5031707;28;20374;-78
2022/09/05 01:48:12;;;;;;;7.07;4.70;;;16.90;99.90;;;;;;5031395;28;20065;-78
2022/09/05 01:51:14;;;;;;;5.22;4.10;;;17.00;99.90;;;;;;5031604;28;20047;-78
2022/09/05 01:53:56;;;;;;;5.30;4.65;;;17.00;99.90;;;;;;5031535;28;20033;-78
2022/09/05 01:56:49;;;;;;;4.28;3.80;;;16.90;99.90;;;;;;5031439;28;20049;-79
2022/09/05 01:59:37;;;;;;;6.32;4.55;;;16.80;99.90;;;;;;5031612;28;20042;-79
2022/09/05 02:02:18;;;;;;;7.32;4.40;;;16.80;99.90;;;;;;5031686;28;20068;-78
2022/09/05 02:04:46;;;;;;;5.93;4.35;;;16.80;99.90;;;;;;5031296;28;20041;-78
2022/09/05 02:07:32;;;;;;;5.80;4.68;;;16.70;99.90;;;;;;5031134;28;20516;-78
2022/09/05 02:10:25;;;;;;;6.55;4.40;;;16.70;99.90;;;;;;5029841;28;20523;-78
2022/09/05 02:13:02;;;;;;;5.65;4.70;;;16.70;99.90;;;;;;5030028;28;20041;-78
2022/09/05 02:15:40;;;;;;;5.00;4.43;;;16.60;99.90;;;;;;5029846;28;20404;-78
2022/09/05 02:18:14;;;;;;;6.15;4.93;;;16.60;99.90;;;;;;5029830;28;20049;-78
2022/09/05 02:20:39;;;;;;;5.80;4.50;;;16.50;99.90;;;;;;5029793;28;20144;-78
2022/09/05 02:23:14;;;;;;;8.82;4.82;;;16.50;99.90;;;;;;5029881;28;20072;-78
2022/09/05 02:26:15;;;;;;;5.55;4.82;;;16.50;99.90;;;;;;5030964;28;20041;-78
2022/09/05 02:29:01;;;;;;;6.10;5.25;;;16.50;99.90;;;;;;5029900;28;20048;-78
2022/09/05 02:31:45;;;;;;;6.93;4.88;;;16.50;99.90;;;;;;5031090;28;20439;-78
2022/09/05 02:34:20;;;;;;;4.95;4.43;;;16.60;99.90;;;;;;5013079;28;20052;-78
2022/09/05 02:37:07;;;;;;;7.15;5.07;;;16.40;99.90;;;;;;5029779;28;20045;-78
2022/09/05 02:40:09;;;;;;;8.70;5.20;;;16.40;99.90;;;;;;5029311;28;20588;-79
2022/09/05 02:42:59;;;;;;;7.53;4.65;;;16.30;99.90;;;;;;5027808;28;20113;-78
2022/09/05 02:45:39;;;;;;;6.13;4.70;;;16.20;99.90;;;;;;5030441;28;20041;-78
2022/09/05 02:48:14;;;;;;;6.80;4.88;;;16.20;99.90;;;;;;5029899;28;20119;-78
2022/09/05 02:51:13;;;;;;;5.95;5.05;;;16.20;99.90;;;;;;5030838;28;20045;-78
2022/09/05 02:53:45;;;;;;;6.32;5.15;;;16.20;99.90;;;;;;5030757;28;20111;-78
2022/09/05 02:56:38;;;;;;;8.98;5.82;;;16.00;99.90;;;;;;5029168;28;20077;-78
2022/09/05 02:59:41;;;;;;;6.80;5.15;;;16.10;99.90;;;;;;5012733;28;20067;-78
2022/09/05 03:02:29;;;;;;;8.35;4.90;;;16.10;99.90;;;;;;5029392;28;20103;-78
2022/09/05 03:04:58;;;;;;;9.63;5.65;;;16.10;99.90;;;;;;5030512;28;20042;-78
2022/09/05 03:07:54;;;;;;;6.63;5.72;;;16.00;99.90;;;;;;5030609;28;20077;-78
2022/09/05 03:10:27;;;;;;;6.38;5.65;;;16.00;99.90;;;;;;5029290;28;20056;-78
2022/09/05 03:12:59;;;;;;;6.70;5.70;;;16.00;99.90;;;;;;5030809;28;20040;-78
2022/09/05 03:15:46;;;;;;;7.07;5.25;;;15.90;99.90;;;;;;5029189;28;20514;-78
2022/09/05 03:18:42;;;;;;;7.60;5.55;;;15.90;99.90;;;;;;5028921;28;20627;-78
2022/09/05 03:21:30;;;;;;;6.25;5.65;;;15.90;99.90;;;;;;5029011;28;20045;-78
2022/09/05 03:24:27;;;;;;;6.60;5.63;;;15.90;99.90;;;;;;5030641;28;20463;-78
2022/09/05 03:27:14;;;;;;;7.55;5.78;;;15.90;99.90;;;;;;5030282;28;20460;-78
2022/09/05 03:30:08;;;;;;;9.90;6.18;;;15.90;99.90;;;;;;5013163;28;20099;-78
2022/09/05 03:32:52;;;;;;;13.15;6.43;;;16.00;99.90;;;;;;5030313;28;20037;-78
2022/09/05 03:35:37;;;;;;;8.38;6.25;;;15.90;99.90;;;;;;5028711;28;20050;-78
2022/09/05 03:38:28;;;;;;;8.48;6.38;;;15.90;99.90;;;;;;5030297;28;20052;-78
2022/09/05 03:41:08;;;;;;;9.95;6.85;;;15.90;99.90;;;;;;5030340;28;20492;-78
2022/09/05 03:43:54;;;;;;;9.07;6.45;;;15.80;99.90;;;;;;5034352;28;20056;-78
2022/09/05 03:46:49;;;;;;;8.82;6.55;;;15.80;99.90;;;;;;5037769;28;20045;-78
2022/09/05 03:49:33;;;;;;;9.23;7.00;;;15.80;99.90;;;;;;5032653;28;20048;-78
2022/09/05 03:52:10;;;;;;;10.13;6.05;;;15.90;99.90;;;;;;5032687;28;20092;-78
2022/09/05 03:54:51;;;;;;;8.25;6.10;;;15.90;99.90;;;;;;5033908;28;20041;-78
2022/09/05 03:57:38;;;;;;;7.67;5.53;;;15.80;99.90;;;;;;5015917;28;20060;-78
2022/09/05 04:00:09;;;;;;;7.43;6.25;;;15.80;99.90;;;;;;5032668;28;20291;-78
2022/09/05 04:02:58;;;;;;;10.30;6.40;;;15.80;99.90;;;;;;5032523;28;20045;-79
2022/09/05 04:05:54;;;;;;;12.20;7.05;;;15.80;99.90;;;;;;5032488;28;20045;-78
2022/09/05 04:08:19;;;;;;;7.80;6.05;;;15.80;99.90;;;;;;5032966;28;20053;-78
2022/09/05 04:10:58;;;;;;;8.52;6.43;;;15.80;99.90;;;;;;5032156;28;20041;-78
2022/09/05 04:13:53;;;;;;;10.48;6.53;;;15.70;99.90;;;;;;5032323;28;20124;-78
2022/09/05 04:16:51;;;;;;;8.35;6.75;;;15.70;99.90;;;;;;5014773;28;20059;-78
2022/09/05 04:19:30;;;;;;;7.75;6.82;;;15.70;99.90;;;;;;5015903;28;20041;-79
2022/09/05 04:21:55;;;;;;;14.70;7.82;;;15.70;99.90;;;;;;5032251;28;20112;-78
2022/09/05 04:24:42;;;;;;;8.82;6.47;;;15.60;99.90;;;;;;5033455;28;20121;-78
2022/09/05 04:27:39;;;;;;;9.10;6.90;;;15.70;99.90;;;;;;5031485;28;20049;-78
2022/09/05 04:30:33;;;;;;;12.40;7.40;;;15.70;99.90;;;;;;4988043;28;20140;-78
2022/09/05 04:33:23;;;;;;;10.50;6.85;;;15.70;99.90;;;;;;5015349;28;20037;-78
2022/09/05 04:35:57;;;;;;;10.57;7.43;;;15.60;99.90;;;;;;5032672;28;20042;-78
2022/09/05 04:38:38;;;;;;;8.15;7.00;;;15.70;99.90;;;;;;5033083;28;20128;-78
2022/09/05 04:41:39;;;;;;;11.32;7.88;;;15.60;99.90;;;;;;5032144;28;20088;-79
2022/09/05 04:44:11;;;;;;;9.55;7.32;;;15.60;99.90;;;;;;5022130;28;20088;-79
2022/09/05 04:47:02;;;;;;;11.00;7.10;;;15.70;99.90;;;;;;5032300;28;20049;-78
2022/09/05 04:49:31;;;;;;;10.68;7.68;;;15.60;99.90;;;;;;5031199;28;20049;-78
2022/09/05 04:52:31;;;;;;;11.68;7.78;;;15.60;99.90;;;;;;5032577;28;20103;-78
2022/09/05 04:55:12;;;;;;;8.15;7.18;;;15.60;99.90;;;;;;5031111;28;20128;-78
2022/09/05 04:57:59;;;;;;;10.50;7.13;;;15.50;99.90;;;;;;5031188;28;20057;-79
2022/09/05 05:00:45;;;;;;;13.07;7.28;;;15.60;99.90;;;;;;5032813;28;20045;-78
2022/09/05 05:03:23;;;;;;;8.48;7.03;;;15.50;99.90;;;;;;5032348;28;20147;-78
2022/09/05 05:06:02;;;;;;;9.23;7.60;;;15.50;99.90;;;;;;5031037;28;20045;-78
2022/09/05 05:08:51;;;;;;;9.82;7.90;;;15.50;99.90;;;;;;5032464;28;20037;-78
2022/09/05 05:11:25;;;;;;;9.90;7.50;;;15.60;99.90;;;;;;5014578;28;20068;-78
2022/09/05 05:14:07;;;;;;;9.82;7.15;;;15.60;99.90;;;;;;5032176;28;20041;-78
2022/09/05 05:16:40;;;;;;;11.90;7.82;;;15.60;99.90;;;;;;5030965;28;20056;-78
2022/09/05 05:19:18;;;;;;;10.50;8.07;;;15.60;99.90;;;;;;5014588;28;20060;-78
2022/09/05 05:21:50;;;;;;;12.18;7.85;;;15.70;99.90;;;;;;5031319;28;20045;-78
2022/09/05 05:24:29;;;;;;;9.63;7.67;;;15.70;99.90;;;;;;5032683;28;20049;-78
2022/09/05 05:27:01;;;;;;;9.15;7.00;;;15.70;99.90;;;;;;5032041;28;20124;-78
2022/09/05 05:29:42;;;;;;;;;;;15.70;99.90;;;;;;5032641;28;20559;-78
2022/09/05 05:32:13;;;;;;;10.20;7.75;;;15.80;99.90;;;;;;5014691;28;19970;-79
2022/09/05 05:34:45;;;;;;;13.07;7.65;;;15.70;99.90;;;;;;5032417;28;20198;-78
2022/09/05 05:37:20;;;;;;;14.75;8.25;;;15.80;99.90;;;;;;5032080;28;20148;-78
2022/09/05 05:39:56;;;;;;;11.32;7.50;;;15.80;99.90;;;;;;5014942;28;20041;-79
2022/09/05 05:42:23;;;;;;;10.18;7.82;;;15.90;99.90;;;;;;5032254;28;20465;-79
2022/09/05 05:44:52;;;;;;;12.98;7.90;;;15.80;99.90;;;;;;5032250;28;20044;-79
2022/09/05 05:47:19;;;;;;;10.35;7.57;;;15.80;99.90;;;;;;5030695;28;20052;-79
2022/09/05 05:50:24;;;;;;;10.73;8.60;;;16.00;99.90;;;;;;5031051;28;20368;-79
2022/09/05 05:53:06;;;;;;;10.90;8.38;;;16.00;99.90;;;;;;5014940;28;20054;-79
2022/09/05 05:56:00;;;;;;;11.25;8.07;;;16.00;99.90;;;;;;5030706;28;20522;-78
2022/09/05 05:58:44;;;;;;;10.63;8.30;;;16.20;99.90;;;;;;5029921;28;20175;-78
2022/09/05 06:01:27;;;;;;;11.75;9.05;;;16.30;99.90;;;;;;5030989;28;20069;-78
2022/09/05 06:04:11;;;;;;;9.70;8.70;;;16.40;99.90;;;;;;5030148;28;20049;-78
2022/09/05 06:06:37;;;;;;;12.68;9.20;;;16.40;99.90;;;;;;5030160;28;20048;-78
2022/09/05 06:09:27;;;;;;;10.07;7.97;;;16.50;99.90;;;;;;5030001;28;20050;-70
2022/09/05 06:12:05;;;;;;;10.45;7.78;;;16.50;99.90;;;;;;5029790;28;20045;-78
2022/09/05 06:15:02;;;;;;;13.25;9.27;;;16.60;99.90;;;;;;5030008;28;20425;-78
2022/09/05 06:17:59;;;;;;;12.35;8.45;;;16.60;99.90;;;;;;5012577;28;20085;-78
2022/09/05 06:20:34;;;;;;;10.65;7.97;;;16.70;99.90;;;;;;5012596;28;20586;-78
2022/09/05 06:23:12;;;;;;;11.98;8.30;;;16.70;99.90;;;;;;5012442;28;20049;-77
2022/09/05 06:26:02;;;;;;;12.82;8.57;;;16.80;99.90;;;;;;5029345;28;20531;-77
2022/09/05 06:28:29;;;;;;;11.98;8.90;;;16.90;99.90;;;;;;5029999;28;20516;-77
2022/09/05 06:31:19;;;;;;;10.48;8.65;;;16.90;99.90;;;;;;5028950;28;20041;-78
2022/09/05 06:34:13;;;;;;;12.85;8.65;;;17.00;99.90;;;;;;5030806;28;20042;-78
2022/09/05 06:37:05;;;;;;;11.60;8.95;;;17.10;99.90;;;;;;4982624;28;20057;-77
2022/09/05 06:39:52;;;;;;;12.68;8.95;;;17.20;99.90;;;;;;5031076;28;20041;-77
2022/09/05 06:42:36;;;;;;;11.40;8.55;;;17.30;99.90;;;;;;5029352;28;20053;-78
2022/09/05 06:45:21;;;;;;;12.32;9.02;;;17.40;99.90;;;;;;5007002;28;20061;-77
2022/09/05 06:47:50;;;;;;;9.93;8.85;;;17.60;99.90;;;;;;5028561;28;20223;-77
2022/09/05 06:50:22;;;;;;;11.32;9.40;;;17.60;99.90;;;;;;5033138;28;20034;-78
2022/09/05 06:53:17;;;;;;;9.75;8.57;;;17.70;99.90;;;;;;5023449;28;20451;-77
2022/09/05 06:56:07;;;;;;;13.00;9.20;;;17.80;99.90;;;;;;5029233;28;20049;-77
2022/09/05 06:59:07;;;;;;;13.77;8.93;;;17.90;99.90;;;;;;5029567;28;20042;-77
2022/09/05 07:01:43;;;;;;;11.50;7.80;;;17.90;99.90;;;;;;5011671;28;20124;-78
2022/09/05 07:04:29;;;;;;;11.70;8.45;;;18.00;99.90;;;;;;5038984;28;20053;-78
2022/09/05 07:07:22;;;;;;;15.00;8.88;;;18.10;99.90;;;;;;5021952;28;20045;-78
2022/09/05 07:09:58;;;;;;;11.68;9.32;;;18.30;99.90;;;;;;5029620;28;20126;-78
2022/09/05 07:12:51;;;;;;;13.98;9.32;;;18.40;99.90;;;;;;5039987;28;20144;-84
2022/09/05 07:15:26;;;;;;;13.55;9.05;;;18.80;99.90;;;;;;5012976;28;20117;-84
2022/09/05 07:18:07;;;;;;;17.35;9.48;;;19.30;99.90;;;;;;5029972;28;20038;-84
2022/09/05 07:20:45;;;;;;;16.35;8.20;;;19.70;99.90;;;;;;5013542;28;20037;-84
2022/09/05 07:23:39;;;;;;;13.60;9.20;;;20.00;99.90;;;;;;5034320;28;20132;-84
2022/09/05 07:32:44;;;;;;;9.43;7.72;;;21.10;99.90;;;;;;5027632;28;20147;-85
2022/09/05 07:35:42;;;;;;;13.43;8.05;;;22.40;99.90;;;;;;4995451;28;20124;-85
2022/09/05 07:38:18;;;;;;;10.35;7.93;;;23.40;99.90;;;;;;4997827;28;20472;-84
2022/09/05 07:41:23;;;;;;;10.18;7.07;;;24.00;99.90;;;;;;4999798;28;20045;-85
2022/09/05 07:43:54;;;;;;;8.23;7.07;;;24.80;99.90;;;;;;4965903;28;20074;-85
2022/09/05 07:46:31;;;;;;;10.55;7.40;;;25.40;99.90;;;;;;5039389;28;20034;-84
2022/09/05 07:49:15;;;;;;;9.65;8.05;;;25.80;99.90;;;;;;5053156;28;20418;-85
2022/09/05 07:52:17;;;;;;;12.75;7.68;;;26.30;99.90;;;;;;5035956;28;20049;-83
2022/09/05 07:54:51;;;;;;;8.50;7.60;;;26.70;99.90;;;;;;5019099;28;20395;-83
2022/09/05 07:57:31;;;;;;;10.20;7.43;;;26.80;99.90;;;;;;5029006;28;20039;-83
2022/09/05 08:00:10;;;;;;;13.48;6.47;;;27.00;96.60;;;;;;5031908;28;20085;-84
2022/09/05 08:02:46;;;;;;;7.43;6.20;;;27.10;96.90;;;;;;5055313;28;20557;-83
2022/09/05 08:05:20;;;;;;;10.88;7.85;;;27.20;95.20;;;;;;5055271;28;20108;-84
2022/09/05 08:07:51;;;;;;;9.57;6.93;;;27.20;94.30;;;;;;5055427;28;20039;-84
2022/09/05 08:10:49;;;;;;;7.90;5.90;;;27.40;94.90;;;;;;5039032;28;20483;-84
2022/09/05 08:13:19;;;;;;;8.63;6.72;;;27.50;87.40;;;;;;5049738;28;20049;-83
2022/09/05 08:15:50;;;;;;;7.73;6.90;;;27.70;91.00;;;;;;5038288;28;20037;-84
2022/09/05 08:18:42;;;;;;;8.25;5.97;;;27.80;91.90;;;;;;5038875;28;20318;-84
2022/09/05 08:21:20;;;;;;;7.32;6.20;;;28.00;87.40;;;;;;5038710;28;20044;-84
2022/09/05 08:24:11;;;;;;;7.95;5.85;;;28.10;89.60;;;;;;5055131;28;20044;-84
2022/09/05 08:26:55;;;;;;;6.40;5.75;;;27.90;84.50;;;;;;5038367;28;20070;-84
2022/09/05 08:29:52;;;;;;;7.55;6.72;;;27.90;87.40;;;;;;5038479;28;20040;-84
2022/09/05 08:32:21;;;;;;;7.35;5.97;;;28.00;84.90;;;;;;5049285;28;20048;-84
2022/09/05 08:34:50;;;;;;;10.68;6.60;;;27.90;85.70;;;;;;5072665;28;20036;-83
2022/09/05 08:37:21;;;;;;;8.88;6.68;;;28.00;85.90;;;;;;5072908;28;20116;-84
2022/09/05 08:39:50;;;;;;;9.32;6.22;;;28.10;84.60;;;;;;5054955;28;20080;-83
2022/09/05 08:42:27;;;;;;;6.43;5.68;;;28.20;84.00;;;;;;5069226;28;20051;-83
2022/09/05 08:45:20;;;;;;;6.75;5.18;;;28.20;84.70;;;;;;5018263;28;20072;-83
2022/09/05 08:47:59;;;;;;;6.55;4.78;;;28.30;81.50;;;;;;5051376;28;20036;-83
2022/09/05 08:50:43;;;;;;;7.70;5.90;;;28.60;80.70;;;;;;5021462;28;20041;-84
2022/09/05 08:53:34;;;;;;;7.53;5.53;;;28.80;82.60;;;;;;5047263;28;20044;-84
2022/09/05 08:56:15;;;;;;;8.38;5.30;;;29.10;80.40;;;;;;5067656;28;21145;-83
2022/09/05 08:58:49;;;;;;;;;;;29.20;79.70;;;;;;5033260;28;20045;-83
2022/09/05 09:01:47;;;;;;;6.32;5.72;;;29.20;77.00;;;;;;5033608;28;19922;-83
2022/09/05 09:04:39;;;;;;;7.35;5.53;;;29.60;75.30;;;;;;5030483;28;20064;-83
2022/09/05 09:07:11;;;;;;;6.95;5.43;;;29.70;72.90;;;;;;5048948;28;20055;-83
2022/09/05 09:10:07;;;;;;;8.70;4.90;;;29.70;76.00;;;;;;5045663;28;20048;-83
2022/09/05 09:13:12;;;;;;;10.82;5.72;;;29.80;74.20;;;;;;5048958;28;20209;-83
2022/09/05 09:16:12;;;;;;;16.52;5.72;;;29.90;72.20;;;;;;5047857;28;20144;-83
2022/09/05 09:18:47;;;;;;;9.20;4.65;;;29.70;73.20;;;;;;5033384;28;20438;-83
2022/09/05 09:21:38;;;;;;;7.25;4.78;;;29.70;74.10;;;;;;5048475;28;20048;-83
2022/09/05 09:24:20;;;;;;;5.38;4.43;;;30.00;73.80;;;;;;5031427;28;20040;-83
2022/09/05 09:27:03;;;;;;;6.25;4.30;;;30.10;72.90;;;;;;5066343;28;20052;-84
2022/09/05 09:29:33;;;;;;;7.82;4.57;;;30.10;73.20;;;;;;5046434;28;20071;-83
2022/09/05 09:32:09;;;;;;;5.35;4.13;;;30.10;72.50;;;;;;5024902;28;20408;-84
2022/09/05 09:34:43;;;;;;;6.65;4.97;;;30.30;70.40;;;;;;5048595;28;20049;-83
2022/09/05 09:37:26;;;;;;;5.32;4.47;;;30.30;69.20;;;;;;5063984;28;20029;-84
2022/09/05 09:40:12;;;;;;;6.22;4.15;;;30.40;70.20;;;;;;5047383;28;20617;-83
2022/09/05 09:42:52;;;;;;;6.45;4.32;;;30.50;69.70;;;;;;5048198;28;20383;-83
2022/09/05 09:45:40;;;;;;;6.57;4.20;;;30.70;67.20;;;;;;5045844;28;20047;-83
2022/09/05 09:48:43;;;;;;;7.97;4.47;;;30.80;68.50;;;;;;5038032;28;20037;-83
2022/09/05 09:51:25;;;;;;;4.07;3.30;;;30.80;65.20;;;;;;5037245;28;20071;-84
2022/09/05 09:54:07;;;;;;;5.72;4.43;;;30.80;68.20;;;;;;5027233;28;20036;-84
2022/09/05 09:56:52;;;;;;;7.93;4.20;;;30.80;65.90;;;;;;5063138;28;20036;-84
2022/09/05 09:59:35;;;;;;;5.90;3.55;;;30.90;65.50;;;;;;5045478;28;20059;-84
2022/09/05 10:02:23;;;;;;;6.80;3.60;;;30.80;66.70;;;;;;5027906;28;20562;-84
2022/09/05 10:04:54;;;;;;;3.50;3.20;;;30.90;64.60;;;;;;5046654;28;20044;-83
2022/09/05 10:07:20;;;;;;;7.35;4.10;;;30.80;65.20;;;;;;5046117;28;20036;-84
2022/09/05 10:10:18;;;;;;;5.22;3.83;;;30.60;65.80;;;;;;5044762;28;20469;-84
2022/09/05 10:13:02;;;;;;;6.22;3.70;;;30.60;66.00;;;;;;4958043;28;20058;-84
2022/09/05 10:15:29;;;;;;;6.40;3.63;;;30.40;64.80;;;;;;5024547;28;20071;-85
2022/09/05 10:18:30;;;;;;;4.83;3.27;;;30.20;66.60;;;;;;5043183;28;20032;-84
2022/09/05 10:21:14;;;;;;;7.15;3.38;;;30.00;69.00;;;;;;5020240;28;20073;-84
2022/09/05 10:24:21;;;;;;;6.63;3.88;;;29.90;68.90;;;;;;5056925;28;20044;-83
2022/09/05 10:27:35;;;;;;;3.28;2.78;;;29.90;67.80;;;;;;5056891;28;20036;-83
2022/09/05 10:30:22;;;;;;;4.60;3.30;;;29.80;67.60;;;;;;5035307;28;20064;-83
2022/09/05 10:32:56;;;;;;;5.60;2.75;;;29.80;68.30;;;;;;5053048;28;20127;-83
2022/09/05 10:35:28;;;;;;;4.00;3.30;;;29.90;67.50;;;;;;5036017;28;20040;-83
2022/09/05 10:38:10;;;;;;;4.05;2.95;;;29.90;67.20;;;;;;5052777;28;20395;-83
2022/09/05 10:40:42;;;;;;;4.97;2.90;;;29.90;65.90;;;;;;5035986;28;20086;-84
2022/09/05 10:43:18;;;;;;;2.65;2.40;;;29.90;66.30;;;;;;5035996;28;20044;-83
2022/09/05 10:45:56;;;;;;;3.28;2.97;;;30.00;67.00;;;;;;5052536;28;20036;-83
2022/09/05 10:48:34;;;;;;;5.13;2.53;;;30.10;65.80;;;;;;5050787;28;20044;-84
2022/09/05 10:51:13;;;;;;;4.40;3.10;;;30.10;65.80;;;;;;5046225;28;20129;-84
2022/09/05 10:53:59;;;;;;;3.38;2.40;;;30.10;64.50;;;;;;5035383;28;20041;-84
2022/09/05 10:56:29;;;;;;;3.13;2.60;;;30.20;67.00;;;;;;5055788;28;20047;-84
2022/09/05 10:59:24;;;;;;;5.82;2.65;;;30.20;65.30;;;;;;5040158;28;20517;-85
2022/09/05 11:02:13;;;;;;;4.85;2.90;;;30.30;64.50;;;;;;5033860;28;20075;-83
2022/09/05 11:05:03;;;;;;;6.70;2.22;;;30.50;62.60;;;;;;5039424;28;20551;-84
2022/09/05 11:07:37;;;;;;;3.90;1.70;;;30.60;61.40;;;;;;5048734;28;20051;-83
2022/09/05 11:10:23;;;;;;;4.45;1.80;;;30.70;61.10;;;;;;5042428;28;20366;-83
2022/09/05 11:13:04;;;;;;;4.03;2.55;;;30.80;60.40;;;;;;5059354;28;20044;-82
2022/09/05 11:15:40;;;;;;;3.10;2.08;;;30.90;58.90;;;;;;5058220;28;20048;-84
2022/09/05 11:18:21;;;;;;;5.47;2.60;;;30.80;59.90;;;;;;5058037;28;20520;-83
2022/09/05 11:21:32;;;;;;;4.32;2.00;;;30.80;60.40;;;;;;5059725;28;20048;-83
2022/09/05 11:24:07;;;;;;;3.28;2.53;;;30.80;60.00;;;;;;4998325;28;20106;-82
2022/09/05 11:26:35;;;;;;;3.70;2.15;;;30.80;58.50;;;;;;5064449;28;20066;-82
2022/09/05 11:29:06;;;;;;;5.20;2.55;;;30.80;57.30;;;;;;5063040;28;20041;-82
2022/09/05 11:32:01;;;;;;;2.58;2.17;;;30.70;57.50;;;;;;5058285;28;20063;-82
2022/09/05 11:34:50;;;;;;;4.93;2.60;;;30.60;59.30;;;;;;5059167;28;20044;-82
2022/09/05 11:37:42;;;;;;;4.88;2.05;;;30.60;57.80;;;;;;5059234;28;20036;-84
2022/09/05 11:40:37;;;;;;;3.83;2.33;;;30.70;58.10;;;;;;5060163;28;20048;-82
2022/09/05 11:43:24;;;;;;;2.28;1.92;;;30.50;57.90;;;;;;5053705;28;20048;-82
2022/09/05 11:46:15;;;;;;;7.35;2.83;;;30.40;57.90;;;;;;5058661;28;20041;-83
2022/09/05 11:49:04;;;;;;;3.28;2.22;;;30.40;59.50;;;;;;5042126;28;20052;-83
2022/09/05 11:52:06;;;;;;;3.35;2.28;;;30.30;59.00;;;;;;5061326;28;20040;-81
2022/09/05 11:54:38;;;;;;;4.82;2.67;;;30.20;58.00;;;;;;5056071;28;20041;-81
2022/09/05 11:57:22;;;;;;;4.95;2.47;;;30.10;58.90;;;;;;5067870;28;20055;-82
2022/09/05 11:59:59;;;;;;;5.30;2.33;;;30.00;57.50;;;;;;5057812;28;20115;-83
2022/09/05 12:02:42;;;;;;;3.85;2.55;;;30.00;59.10;;;;;;5059575;28;20051;-82
2022/09/05 12:05:53;;;;;;;4.90;2.38;;;30.00;58.90;;;;;;5055955;28;20132;-83
2022/09/05 12:08:53;;;;;;;3.03;2.07;;;30.20;59.50;;;;;;5043012;28;20036;-83
2022/09/05 12:11:24;;;;;;;4.03;2.38;;;30.20;58.60;;;;;;5052500;28;20044;-83
2022/09/05 12:14:27;;;;;;;6.82;2.47;;;30.30;57.90;;;;;;5050753;28;20056;-81
2022/09/05 12:17:24;;;;;;;4.88;2.38;;;30.50;57.60;;;;;;5038462;28;20499;-83
2022/09/05 12:20:05;;;;;;;5.88;2.00;;;30.50;59.10;;;;;;5050655;28;20033;-83
2022/09/05 12:22:42;;;;;;;3.60;1.95;;;30.60;56.30;;;;;;5055573;28;20064;-83
2022/09/05 12:25:26;;;;;;;8.50;2.25;;;30.90;55.70;;;;;;5056321;28;20136;-83
2022/09/05 12:28:01;;;;;;;2.75;2.30;;;31.20;55.00;;;;;;5054075;28;20551;-83
2022/09/05 12:30:29;;;;;;;3.47;1.75;;;31.30;56.00;;;;;;5040755;28;20047;-82
2022/09/05 12:33:20;;;;;;;4.50;1.85;;;31.30;55.60;;;;;;5055324;28;20503;-83
2022/09/05 12:36:39;;;;;;;4.10;2.00;;;31.30;54.20;;;;;;5072828;28;20036;-82
2022/09/05 12:39:16;;;;;;;5.03;2.05;;;31.10;54.30;;;;;;4993248;28;20075;-82
2022/09/05 12:41:59;;;;;;;2.15;1.60;;;31.10;54.60;;;;;;5040819;28;20045;-81
2022/09/05 12:44:42;;;;;;;2.42;1.80;;;31.20;54.20;;;;;;5059260;28;20058;-83
2022/09/05 12:47:11;;;;;;;2.85;1.90;;;31.10;52.50;;;;;;5060685;28;20046;-81
2022/09/05 12:49:36;;;;;;;2.72;1.98;;;31.00;53.50;;;;;;5057182;28;20076;-81
2022/09/05 12:52:13;;;;;;;2.75;1.70;;;31.00;53.70;;;;;;5040021;28;20087;-83
2022/09/05 12:54:53;;;;;;;4.32;1.83;;;31.00;54.30;;;;;;5037661;28;20152;-82
2022/09/05 12:57:31;;;;;;;2.40;1.80;;;31.00;53.20;;;;;;5040082;28;20060;-82
2022/09/05 13:00:03;;;;;;;3.63;1.80;;;31.00;53.20;;;;;;5057070;28;20070;-81
2022/09/05 13:02:33;;;;;;;2.60;1.70;;;30.80;54.60;;;;;;5073890;28;20033;-81
2022/09/05 13:05:11;;;;;;;1.73;1.63;;;30.60;55.00;;;;;;5058796;28;20049;-80
2022/09/05 13:07:44;;;;;;;2.72;1.38;;;30.40;55.30;;;;;;5076087;28;20044;-80
2022/09/05 13:10:24;;;;;;;4.30;1.55;;;30.30;55.00;;;;;;5058001;28;20487;-81
2022/09/05 13:12:56;;;;;;;5.68;2.03;;;30.30;55.60;;;;;;5055011;28;20036;-82
2022/09/05 13:15:35;;;;;;;5.60;2.05;;;30.30;55.80;;;;;;5055112;28;20048;-82
2022/09/05 13:18:12;;;;;;;6.55;2.15;;;30.20;55.50;;;;;;5055581;28;20056;-82
2022/09/05 13:20:50;;;;;;;3.72;2.03;;;30.30;54.10;;;;;;5040551;28;20040;-81
2022/09/05 13:23:30;;;;;;;4.30;2.92;;;30.40;56.10;;;;;;5073781;28;20070;-82
2022/09/05 13:25:59;;;;;;;6.00;2.17;;;30.50;56.60;;;;;;5072125;28;20410;-81
2022/09/05 13:28:57;;;;;;;9.45;2.20;;;30.60;56.00;;;;;;5055090;28;20052;-81
2022/09/05 13:31:40;;;;;;;4.55;1.92;;;30.60;55.80;;;;;;5074825;28;20535;-79
2022/09/05 13:34:17;;;;;;;2.22;1.95;;;30.60;55.00;;;;;;5057222;28;20040;-83
2022/09/05 13:36:50;;;;;;;2.20;2.00;;;30.60;54.70;;;;;;5057701;28;20072;-80
2022/09/05 13:39:26;;;;;;;2.55;1.80;;;30.80;54.70;;;;;;5075806;28;20387;-79
2022/09/05 13:41:58;;;;;;;2.92;1.30;;;30.90;53.90;;;;;;5074125;28;20072;-80
2022/09/05 13:44:25;;;;;;;2.70;1.55;;;30.90;54.00;;;;;;5057634;28;20048;-78
2022/09/05 13:47:08;;;;;;;3.65;2.08;;;31.20;53.70;;;;;;5057513;28;20485;-82
2022/09/05 13:49:44;;;;;;;3.83;1.80;;;31.30;53.20;;;;;;5055469;28;20040;-79
2022/09/05 13:52:29;;;;;;;2.08;1.73;;;31.40;52.60;;;;;;5055884;28;20052;-81
2022/09/05 13:55:20;;;;;;;3.20;1.63;;;31.40;52.80;;;;;;5075777;28;20068;-80
2022/09/05 13:57:51;;;;;;;3.97;1.85;;;31.30;52.70;;;;;;5058064;28;20047;-80
2022/09/05 14:00:43;;;;;;;2.75;1.55;;;31.30;53.60;;;;;;5075846;28;20033;-84
2022/09/05 14:03:43;;;;;;;2.42;1.90;;;31.30;54.10;;;;;;5056650;28;20044;-81
2022/09/05 14:06:33;;;;;;;4.00;2.07;;;31.30;53.20;;;;;;5059460;28;20456;-81
2022/09/05 14:09:26;;;;;;;3.42;1.63;;;31.20;53.30;;;;;;5056351;28;20044;-83
2022/09/05 14:12:05;;;;;;;2.47;1.65;;;30.90;53.70;;;;;;5053233;28;20049;-83
2022/09/05 14:14:46;;;;;;;2.72;1.63;;;30.60;54.50;;;;;;5055173;28;20041;-81
2022/09/05 14:17:20;;;;;;;5.45;1.80;;;30.30;53.80;;;;;;5045480;28;20044;-80